South Bethlehem, NY (12161)

4:10 PM EDT on July 25, 2017 (GMT -0400)
Callanan's Corners | | Change Station

Elev 387 ft 42.53 °N, 73.89 °W | Updated 35 seconds ago

Overcast
Overcast
65.9 °F
Feels Like 65.9 °F
N
0.0
Wind Variable Wind from WNW
Gusts 4.0 mph

Today
High -- | Low -- °F
--% Chance of Precip.
Yesterday
High -- | Low -- °F
Precip. -- in
Pressure 30.17 in
Visibility 10.0 miles
Clouds Scattered Clouds 900 ft
Scattered Clouds 1700 ft
Overcast 2400 ft
Dew Point 62 °F
Humidity 86%
Rainfall 0.00 in
Snow Depth Not available.
5:40 AM 8:22 PM
Waxing Crescent, 8% visible
METAR KALB 251951Z 01003KT 10SM SCT009 SCT017 OVC024 18/14 A3017 RMK AO2 DZE48 SLP216 P0000 T01780139
Pressure 30.17 in
Visibility 10.0 miles
Clouds Scattered Clouds 900 ft
Scattered Clouds 1700 ft
Overcast 2400 ft
Dew Point 62 °F
Humidity 86%
Rainfall 0.00 in
Snow Depth Not available.
5:40 AM 8:22 PM
Waxing Crescent, 8% visible
METAR KALB 251951Z 01003KT 10SM SCT009 SCT017 OVC024 18/14 A3017 RMK AO2 DZE48 SLP216 P0000 T01780139

Get Severe Weather Alerts

Thanks for signing up!

Be on the lookout for a verification email in your inbox.

You'll start receiving the daily forecast at 6 AM.

×

10-Day Weather Forecast

Almanac

Astronomy

Jul. 25, 2017 Rise Set
Actual Time
Civil Twilight
Nautical Twilight
Astronomical Twilight
Moon
Length of Visible Light
Length of Day
Tomorrow will be .
, % of the Moon is Illuminated

Today's Extremes

State Highs State Lows

Community

WunderPhotos

Category 6

Welcome to Category 6. This is the collective home for Weather Underground's featured writeups by Dr. Jeff Masters (right), Bob Henson (left), Chris Burt, and other regular contributors.

Nearby

Air Quality

  Air Quality AQ Index Pollutant
Not available.

Snow Depth

Station Depth Elevation

Earthquake Activity

City Distance Mag. Time & Date
Minimum magnitude displayed is 2.5.

Coastal Water Temperatures

Place Temperature

Stations

Nearby Weather Stations

Station Location Temp. Windchill Dew Point Humidity Wind Precip. Elev Updated Type
                   

Watches & Warnings

There are currently no watches in effect.